Observations for LIVERPOOL AIRPORT, United Kingdom (EGGP)

EGGP 250320Z AUTO 21008KT 9999 SCT022/// BKN029/// BKN034/// 04/03 Q1011
EGGP 250250Z 25007KT 9999 VCSH BKN031 04/03 Q1012   
EGGP 250220Z 26008KT 220V310 9999 -SHRA BKN035 04/03 Q1012  
EGGP 250150Z 24012KT 9999 -SHRA BKN035 04/03 Q1011 RERA 
EGGP 250120Z 24008KT 9999 VCSH SCT039 04/03 Q1011   
EGGP 250050Z 22008KT 9999 SCT042 04/02 Q1011
EGGP 250020Z 35004KT 9999 VCSH SCT036 04/02 Q1012 RERA  
EGGP 242350Z 28011KT 9999 -RA SCT017 BKN036 04/02 Q1012 
EGGP 242320Z 25011KT 9999 FEW018 SCT039 04/03 Q1011 
EGGP 242250Z 25012KT 9999 VCSH SCT033 BKN048 04/03 Q1011
EGGP 242220Z 26010KT 9999 VCSH SCT033 BKN048 05/03 Q1011
EGGP 242150Z 24010KT 9999 FEW044 05/03 Q1011
EGGP 242120Z 24008KT 9999 FEW023 SCT039 05/04 Q1011 
EGGP 242050Z 25009KT 9999 VCSH FEW023 BKN034 05/03 Q1011 RERA   
EGGP 242020Z 21006KT 9999 VCSH SCT025 BKN036 05/04 Q1011 RERA   
EGGP 241950Z 24004KT 9999 VCSH SCT014 BKN038 04/03 Q1011 RERA   
EGGP 241920Z 26013KT 8000 SHRA FEW003 SCT011 BKN019CB 05/04 Q1011   
EGGP 241850Z 25016G27KT 9999 SHRA FEW005 SCT009 BKN018CB 05/04 Q1011
EGGP 241820Z 23012KT 9999 SCT030 05/03 Q1010
EGGP 241750Z 23015KT 7000 -SHRA SCT016 BKN028CB 05/03 Q1011 
EGGP 241720Z 32004KT 270V350 8000 -RA SCT013 BKN019CB 06/04 Q1011   
EGGP 241650Z 30007KT 9999 FEW025CB SCT042 06/04 Q1010   
EGGP 241620Z 31008KT 280V350 9999 FEW025CB SCT042 06/04 Q1010   
EGGP 241550Z 21008KT 9999 FEW025CB FEW040 07/02 Q1010   
EGGP 241520Z 25009KT 9999 FEW036CB FEW040 07/01 Q1010   
EGGP 241450Z 25011KT 9999 FEW036CB FEW040 08/02 Q1010   
EGGP 241420Z 27011KT 9999 FEW041CB 08/03 Q1010  
EGGP 241350Z 27012KT 9999 FEW041TCU 08/03 Q1010 
EGGP 241320Z 26014KT 9999 FEW041TCU 08/03 Q1010 
EGGP 241250Z 26016KT 9999 FEW043TCU 08/03 Q1010 
EGGP 241220Z 25013KT 9999 FEW043 08/03 Q1010
EGGP 241150Z 25015KT 9999 FEW038TCU FEW043 08/03 Q1010  
EGGP 241120Z 24012KT 9999 FEW042 07/02 Q1010
EGGP 241050Z 22006KT 9999 FEW035 07/02 Q1010
EGGP 241020Z 21006KT 9999 FEW023 SCT035 06/02 Q1010 
EGGP 240950Z 25004KT 190V280 9999 FEW023 SCT033 06/02 Q1010 
EGGP 240920Z VRB02KT 9999 SCT033 06/02 Q1009
EGGP 240850Z 16005KT 120V190 9999 VCSH SCT033 05/02 Q1009   
EGGP 240820Z 21007KT 9999 VCSH FEW028 SCT032 05/03 Q1009
EGGP 240750Z 23010KT 9999 VCSH FEW025 SCT036 05/03 Q1009
EGGP 240720Z 26012KT 9999 -SHRA FEW030 SCT038 05/04 Q1008   
EGGP 240650Z 26012KT 9999 FEW032 SCT040 05/03 Q1008 
EGGP 240620Z 24012KT 9999 FEW037 05/02 Q1008
EGGP 240550Z 24013KT 9999 FEW040 05/03 Q1007
EGGP 240520Z 25012KT 9999 FEW040 05/03 Q1007
EGGP 240450Z 25014KT 9999 FEW034 06/02 Q1007
EGGP 240420Z 24013KT 9999 FEW034 06/03 Q1006
EGGP 240350Z AUTO 25012KT 9999 FEW032/// SCT038/// 05/03 Q1006  
EGGP 240320Z 25012KT 9999 FEW019 SCT043 06/03 Q1006 
EGGP 240250Z 26012KT 9999 -RA FEW019 SCT033 06/04 Q1006